Terminal Aerodrome Forecast
Issued by NWS Jacksonville, FL

Home | Current Version | Previous Version | Text Only | Print | Product List | Glossary On
Versions: 1 2 3 4 5 6 7 8 9 10 11 12 13 14 15 16 17 18 19 20 21 22 23 24
000
FTUS42 KJAX 210540
TAFGNV
TAF
KGNV 210540Z 2106/2206 19003KT P6SM VCSH BKN035
     FM210730 22003KT 6SM BR VCSH SCT008 OVC015
     FM210800 27002KT 5SM BR VCSH BKN007 OVC015
     FM211200 30004KT 4SM BR OVC005
     FM211400 33006KT P6SM SCT015 BKN030
     FM211500 33006KT P6SM FEW030
     FM212300 VRB03KT P6SM SKC=

USA.gov is the U.S. government's official web portal to all federal, state and local government web resources and services.